Time;durP1;ratioP1;P1;durP2;ratioP2;P2;SDS_P1;SDS_P2;PMS_P1;PMS_P2;Temp;Humidity;BMP_temperature;BMP_pressure;BME280_temperature;BME280_humidity;BME280_pressure;Samples;Min_cycle;Max_cycle;Signal;HPM_P1;HPM_P2
2022/01/11 00:01:28;;;;;;;13.60;2.58;;;26.80;99.90;;;;;;5015584;28;20036;-65
2022/01/11 00:03:56;;;;;;;22.25;3.28;;;26.90;99.90;;;;;;5029868;28;20434;-65
2022/01/11 00:06:43;;;;;;;16.92;3.15;;;26.90;99.90;;;;;;5027506;28;20534;-65
2022/01/11 00:12:08;;;;;;;15.40;3.38;;;27.00;99.90;;;;;;5015800;28;20053;-65
2022/01/11 00:14:36;;;;;;;14.10;2.75;;;27.10;99.90;;;;;;5030016;28;20494;-65
2022/01/11 00:17:04;;;;;;;15.45;2.92;;;27.10;99.90;;;;;;5032668;28;20031;-64
2022/01/11 00:19:33;;;;;;;17.35;3.78;;;26.90;99.90;;;;;;5017391;28;20038;-64
2022/01/11 00:22:03;;;;;;;14.82;2.67;;;27.00;99.90;;;;;;5032214;28;20090;-64
2022/01/11 00:24:32;;;;;;;15.50;3.08;;;27.20;99.90;;;;;;5021838;28;20030;-65
2022/01/11 00:27:18;;;;;;;10.70;2.42;;;27.40;99.90;;;;;;5025037;28;20018;-65
2022/01/11 00:29:50;;;;;;;11.07;1.98;;;27.30;99.90;;;;;;5025226;28;20037;-66
2022/01/11 00:32:26;;;;;;;16.02;2.55;;;26.90;99.90;;;;;;5031891;28;20126;-65
2022/01/11 00:34:55;;;;;;;11.90;2.28;;;27.00;99.90;;;;;;5026247;28;20026;-65
2022/01/11 00:37:23;;;;;;;15.80;2.40;;;27.20;99.90;;;;;;5023742;28;20033;-65
2022/01/11 00:39:51;;;;;;;13.50;2.55;;;27.20;99.90;;;;;;5026688;28;20448;-65
2022/01/11 00:42:19;;;;;;;13.32;2.72;;;27.00;99.90;;;;;;5030900;28;20095;-65
2022/01/11 00:44:46;;;;;;;10.27;2.17;;;27.20;99.90;;;;;;5014615;28;20030;-65
2022/01/11 00:47:15;;;;;;;13.20;2.13;;;27.20;99.90;;;;;;5039186;28;20075;-65
2022/01/11 00:49:43;;;;;;;10.50;1.92;;;27.30;99.90;;;;;;5032387;28;20022;-64
2022/01/11 00:52:10;;;;;;;13.10;2.78;;;27.60;99.90;;;;;;5028273;28;20041;-65
2022/01/11 00:54:37;;;;;;;15.13;2.67;;;27.70;99.90;;;;;;5024395;28;20541;-65
2022/01/11 00:57:05;;;;;;;11.32;2.15;;;27.70;99.90;;;;;;5031379;28;20025;-65
2022/01/11 00:59:32;;;;;;;15.15;3.13;;;27.60;99.90;;;;;;5033499;28;20057;-65
2022/01/11 01:02:00;;;;;;;13.43;2.85;;;27.40;99.90;;;;;;5026245;28;20063;-64
2022/01/11 01:04:27;;;;;;;11.82;2.92;;;27.30;99.90;;;;;;5034210;28;20481;-65
2022/01/11 01:06:54;;;;;;;13.45;2.35;;;27.40;99.90;;;;;;5033974;28;20029;-65
2022/01/11 01:09:24;;;;;;;15.55;2.83;;;27.50;99.90;;;;;;5029826;28;20432;-65
2022/01/11 01:11:56;;;;;;;11.88;2.83;;;27.60;99.90;;;;;;5024869;28;20025;-65
2022/01/11 01:14:23;;;;;;;11.77;2.60;;;27.30;99.90;;;;;;5031602;28;20021;-64
2022/01/11 01:16:51;;;;;;;12.50;2.92;;;27.40;99.90;;;;;;5030342;28;20022;-65
2022/01/11 01:19:19;;;;;;;14.98;2.83;;;27.50;99.90;;;;;;5028231;28;20029;-64
2022/01/11 01:21:48;;;;;;;12.13;2.67;;;27.20;99.90;;;;;;5029383;28;20025;-64
2022/01/11 01:24:15;;;;;;;12.40;2.63;;;27.00;99.90;;;;;;5030806;28;20470;-64
2022/01/11 01:26:42;;;;;;;14.65;2.80;;;27.00;99.90;;;;;;5030124;28;20037;-64
2022/01/11 01:29:09;;;;;;;17.00;3.53;;;26.80;99.90;;;;;;5031797;28;20096;-65
2022/01/11 01:31:37;;;;;;;14.63;2.92;;;26.50;99.90;;;;;;5030141;28;20029;-64
2022/01/11 01:34:04;;;;;;;14.27;2.95;;;26.40;99.90;;;;;;5030695;28;20498;-64
2022/01/11 01:36:32;;;;;;;19.38;3.92;;;26.20;99.90;;;;;;5029756;28;20025;-64
2022/01/11 01:38:59;;;;;;;15.98;3.58;;;26.20;99.90;;;;;;5031838;28;20064;-65
2022/01/11 01:41:27;;;;;;;20.70;3.67;;;26.30;99.90;;;;;;5032937;28;20022;-65
2022/01/11 01:43:59;;;;;;;18.25;3.15;;;26.40;99.90;;;;;;5033093;28;20026;-64
2022/01/11 01:46:26;;;;;;;14.90;2.88;;;26.30;99.90;;;;;;5030559;28;20021;-64
2022/01/11 01:49:02;;;;;;;12.35;1.65;;;26.20;99.90;;;;;;5036524;27;20456;-64
2022/01/11 01:51:29;;;;;;;22.00;3.22;;;26.30;99.90;;;;;;5039441;28;20100;-64
2022/01/11 01:53:57;;;;;;;14.93;2.85;;;26.30;99.90;;;;;;5038611;28;20061;-64
2022/01/11 01:56:26;;;;;;;12.18;2.67;;;26.00;99.90;;;;;;5036797;28;20026;-65
2022/01/11 01:58:54;;;;;;;14.25;3.00;;;26.00;99.90;;;;;;5040753;28;20087;-64
2022/01/11 02:01:22;;;;;;;16.73;3.85;;;26.10;99.90;;;;;;5046928;28;20037;-64
2022/01/11 02:03:49;;;;;;;14.30;2.80;;;26.10;99.90;;;;;;5039357;28;20469;-65
2022/01/11 02:06:20;;;;;;;18.17;3.30;;;26.10;99.90;;;;;;5041519;28;20029;-65
2022/01/11 02:08:50;;;;;;;15.35;2.95;;;26.10;99.90;;;;;;5046953;28;20033;-65
2022/01/11 02:11:24;;;;;;;15.13;2.88;;;26.00;99.90;;;;;;5031856;28;20437;-65
2022/01/11 02:13:52;;;;;;;17.80;3.20;;;25.90;99.90;;;;;;5040040;28;20121;-65
2022/01/11 02:16:21;;;;;;;20.98;3.95;;;25.90;99.90;;;;;;5050777;28;20037;-65
2022/01/11 02:18:50;;;;;;;17.42;3.50;;;25.90;99.90;;;;;;5044751;28;20108;-64
2022/01/11 02:21:17;;;;;;;15.90;3.72;;;25.80;99.90;;;;;;5044240;28;20030;-64
2022/01/11 02:23:45;;;;;;;14.57;3.15;;;25.80;99.90;;;;;;5044410;28;20090;-64
2022/01/11 02:26:13;;;;;;;18.77;4.00;;;26.00;99.90;;;;;;5047230;28;20033;-64
2022/01/11 02:28:40;;;;;;;18.05;2.88;;;26.00;99.90;;;;;;5047255;28;20442;-65
2022/01/11 02:31:12;;;;;;;24.23;4.40;;;26.00;99.90;;;;;;5046355;28;20087;-65
2022/01/11 02:33:52;;;;;;;18.77;3.50;;;26.00;99.90;;;;;;5043380;28;20099;-64
2022/01/11 02:36:30;;;;;;;16.80;3.38;;;26.10;99.90;;;;;;5035852;28;20502;-65
2022/01/11 02:38:59;;;;;;;15.75;3.25;;;26.30;99.90;;;;;;5036779;28;20021;-64
2022/01/11 02:41:30;;;;;;;15.13;3.53;;;26.50;99.90;;;;;;5038920;28;20014;-64
2022/01/11 02:43:59;;;;;;;14.00;2.90;;;26.50;99.90;;;;;;5033297;28;20033;-65
2022/01/11 02:46:27;;;;;;;13.68;2.75;;;26.40;99.90;;;;;;5034912;28;20025;-64
2022/01/11 02:48:56;;;;;;;12.65;2.97;;;26.60;99.90;;;;;;5043665;28;20045;-64
2022/01/11 02:51:24;;;;;;;10.88;2.63;;;26.70;99.90;;;;;;5037896;28;20054;-64
2022/01/11 02:53:54;;;;;;;15.13;2.22;;;26.80;99.90;;;;;;5038751;28;20057;-64
2022/01/11 02:56:23;;;;;;;16.23;3.17;;;26.50;99.90;;;;;;5034585;28;20076;-64
2022/01/11 02:58:51;;;;;;;16.95;3.00;;;26.50;99.90;;;;;;5029640;28;20029;-64
2022/01/11 03:01:18;;;;;;;14.32;3.10;;;26.40;99.90;;;;;;5023835;28;20022;-64
2022/01/11 03:03:47;;;;;;;13.15;2.95;;;26.40;99.90;;;;;;5023412;28;20116;-65
2022/01/11 03:06:14;;;;;;;15.32;3.80;;;26.20;99.90;;;;;;5018412;28;20029;-64
2022/01/11 03:08:46;;;;;;;22.85;3.60;;;26.20;99.90;;;;;;5022471;28;20036;-66
2022/01/11 03:11:15;;;;;;;13.00;2.92;;;26.10;99.90;;;;;;5019257;28;20400;-64
2022/01/11 03:13:45;;;;;;;21.73;3.78;;;25.90;99.90;;;;;;5025857;28;20142;-64
2022/01/11 03:16:16;;;;;;;15.50;3.05;;;26.00;99.90;;;;;;5039763;28;20083;-65
2022/01/11 03:18:44;;;;;;;15.15;2.72;;;26.10;99.90;;;;;;5027910;28;20033;-64
2022/01/11 03:21:12;;;;;;;13.77;3.28;;;26.00;99.90;;;;;;5024290;28;20033;-64
2022/01/11 03:23:39;;;;;;;17.27;3.38;;;26.00;99.90;;;;;;5018705;28;20040;-64
2022/01/11 03:26:07;;;;;;;15.00;2.75;;;26.00;99.90;;;;;;5018649;28;20496;-64
2022/01/11 03:28:34;;;;;;;15.98;3.85;;;26.10;99.90;;;;;;5015019;28;20030;-64
2022/01/11 03:31:02;;;;;;;17.92;4.35;;;26.10;99.90;;;;;;5025343;28;20052;-64
2022/01/11 03:33:30;;;;;;;20.65;3.58;;;26.10;99.90;;;;;;5017392;28;20025;-65
2022/01/11 03:35:57;;;;;;;10.25;2.85;;;26.00;99.90;;;;;;5020552;28;20067;-64
2022/01/11 03:38:25;;;;;;;15.52;3.20;;;26.00;99.90;;;;;;5024720;28;20034;-64
2022/01/11 03:40:52;;;;;;;13.85;3.90;;;26.10;99.90;;;;;;5028339;28;20709;-64
2022/01/11 03:43:22;;;;;;;22.52;3.92;;;25.90;99.90;;;;;;5023998;28;20029;-64
2022/01/11 03:45:50;;;;;;;15.32;3.42;;;26.00;99.90;;;;;;5022734;28;20475;-65
2022/01/11 03:48:18;;;;;;;21.73;3.50;;;25.90;99.90;;;;;;5025274;28;20054;-64
2022/01/11 03:50:52;;;;;;;16.13;2.80;;;25.90;99.90;;;;;;5030120;28;20488;-64
2022/01/11 03:53:24;;;;;;;13.45;2.80;;;25.90;99.90;;;;;;5015582;28;20030;-64
2022/01/11 03:58:25;;;;;;;12.13;2.83;;;25.70;99.90;;;;;;5024650;28;20022;-64
2022/01/11 04:00:53;;;;;;;15.55;3.42;;;25.80;99.90;;;;;;5021985;28;20056;-64
2022/01/11 04:03:21;;;;;;;16.30;3.67;;;25.60;99.90;;;;;;5027030;28;20032;-64
2022/01/11 04:05:49;;;;;;;19.33;4.10;;;25.60;99.90;;;;;;5026903;28;20368;-64
2022/01/11 04:08:17;;;;;;;18.90;3.33;;;25.60;99.90;;;;;;5012527;28;20030;-64
2022/01/11 04:10:47;;;;;;;20.42;3.72;;;25.50;99.90;;;;;;5018196;28;20026;-64
2022/01/11 04:13:14;;;;;;;15.05;2.72;;;25.40;99.90;;;;;;5022275;28;20053;-64
2022/01/11 04:15:41;;;;;;;16.30;3.38;;;25.50;99.90;;;;;;5024508;28;20129;-64
2022/01/11 04:18:08;;;;;;;16.75;3.10;;;25.50;99.90;;;;;;5022957;28;20025;-64
2022/01/11 04:20:36;;;;;;;22.75;3.83;;;25.60;99.90;;;;;;5031257;28;20028;-65
2022/01/11 04:23:06;;;;;;;26.67;3.58;;;25.60;99.90;;;;;;5028372;28;20029;-64
2022/01/11 04:25:33;;;;;;;23.13;3.95;;;25.50;99.90;;;;;;5023128;28;20137;-65
2022/01/11 04:28:01;;;;;;;17.63;3.85;;;25.50;99.90;;;;;;5027022;28;20100;-65
2022/01/11 04:30:28;;;;;;;19.25;3.63;;;25.60;99.90;;;;;;5024956;28;20474;-64
2022/01/11 04:32:56;;;;;;;15.88;3.40;;;25.60;99.90;;;;;;5016584;28;20367;-64
2022/01/11 04:35:23;;;;;;;17.85;3.33;;;25.60;99.90;;;;;;5027315;28;20045;-65
2022/01/11 04:37:53;;;;;;;21.25;3.80;;;25.50;99.90;;;;;;5023393;28;20037;-64
2022/01/11 04:40:22;;;;;;;22.90;3.53;;;25.50;99.90;;;;;;5023667;28;20469;-64
2022/01/11 04:42:49;;;;;;;21.27;4.13;;;25.40;99.90;;;;;;5029113;28;20026;-63
2022/01/11 04:45:16;;;;;;;15.95;4.13;;;25.40;99.90;;;;;;5027032;28;20017;-64
2022/01/11 04:47:45;;;;;;;21.00;4.10;;;25.40;99.90;;;;;;5023248;28;20053;-64
2022/01/11 04:50:12;;;;;;;16.70;3.45;;;25.50;99.90;;;;;;5015734;28;20029;-64
2022/01/11 04:52:40;;;;;;;18.15;3.75;;;25.60;99.90;;;;;;5017838;28;20028;-64
2022/01/11 04:55:08;;;;;;;14.35;2.95;;;25.60;99.90;;;;;;5022370;28;20037;-64
2022/01/11 04:57:35;;;;;;;19.83;3.65;;;25.50;99.90;;;;;;5013290;28;20036;-64
2022/01/11 05:00:04;;;;;;;22.38;4.05;;;25.40;99.90;;;;;;5022106;28;20025;-64
2022/01/11 05:02:31;;;;;;;16.67;3.45;;;25.40;99.90;;;;;;5023581;28;20071;-64
2022/01/11 05:04:58;;;;;;;25.35;4.38;;;25.40;99.90;;;;;;5017647;28;20041;-64
2022/01/11 05:07:26;;;;;;;19.98;3.45;;;25.40;99.90;;;;;;5028841;28;20112;-64
2022/01/11 05:09:53;;;;;;;17.90;3.45;;;25.50;99.90;;;;;;5015811;28;20025;-64
2022/01/11 05:12:21;;;;;;;17.08;3.15;;;25.50;99.90;;;;;;5017184;28;20038;-64
2022/01/11 05:14:49;;;;;;;21.90;3.70;;;25.70;99.90;;;;;;5020916;28;20045;-64
2022/01/11 05:17:16;;;;;;;13.18;2.72;;;25.60;99.90;;;;;;5021073;28;20030;-64
2022/01/11 05:19:44;;;;;;;17.65;3.53;;;25.60;99.90;;;;;;5022469;28;20032;-64
2022/01/11 05:22:11;;;;;;;17.52;3.35;;;25.50;99.90;;;;;;5012715;28;20394;-65
2022/01/11 05:24:39;;;;;;;18.45;2.70;;;25.40;99.90;;;;;;5014431;28;20179;-64
2022/01/11 05:27:07;;;;;;;20.95;3.20;;;25.40;99.90;;;;;;5013825;28;20091;-65
2022/01/11 05:29:34;;;;;;;15.43;2.70;;;25.40;99.90;;;;;;5012408;28;20121;-65
2022/01/11 05:32:03;;;;;;;11.80;3.42;;;25.40;99.90;;;;;;5023821;28;20058;-65
2022/01/11 05:34:33;;;;;;;16.40;3.28;;;25.40;99.90;;;;;;5017245;28;20045;-67
2022/01/11 05:37:00;;;;;;;19.27;4.15;;;25.40;99.90;;;;;;5026812;28;20029;-66
2022/01/11 05:39:27;;;;;;;20.45;4.35;;;25.30;99.90;;;;;;5027865;28;20040;-65
2022/01/11 05:41:55;;;;;;;16.60;3.13;;;25.30;99.90;;;;;;5016243;28;20037;-66
2022/01/11 05:44:22;;;;;;;21.42;2.83;;;25.20;99.90;;;;;;5016499;28;20032;-65
2022/01/11 05:46:50;;;;;;;16.42;3.13;;;25.20;99.90;;;;;;5027947;28;20029;-65
2022/01/11 05:49:17;;;;;;;19.63;3.80;;;25.10;99.90;;;;;;5024978;28;20386;-66
2022/01/11 05:51:47;;;;;;;13.55;2.88;;;25.10;99.90;;;;;;5023132;28;20127;-65
2022/01/11 05:54:15;;;;;;;18.90;3.75;;;25.10;99.90;;;;;;5027810;28;20053;-66
2022/01/11 05:56:42;;;;;;;12.45;2.95;;;25.00;99.90;;;;;;5028503;28;20022;-65
2022/01/11 05:59:09;;;;;;;14.93;2.92;;;25.10;99.90;;;;;;5029714;28;20026;-66
2022/01/11 06:01:37;;;;;;;15.27;3.00;;;25.00;99.90;;;;;;5026483;28;20030;-65
2022/01/11 06:04:04;;;;;;;11.27;2.55;;;25.10;99.90;;;;;;5020366;28;20120;-65
2022/01/11 06:06:32;;;;;;;17.90;3.92;;;25.10;99.90;;;;;;5024264;28;20027;-65
2022/01/11 06:09:01;;;;;;;14.13;3.08;;;25.10;99.90;;;;;;5020197;28;20022;-65
2022/01/11 06:11:28;;;;;;;18.45;3.63;;;25.10;99.90;;;;;;5028813;28;20034;-66
2022/01/11 06:13:55;;;;;;;18.33;3.03;;;25.00;99.90;;;;;;5019916;28;20029;-66
2022/01/11 06:16:23;;;;;;;15.88;3.17;;;25.00;99.90;;;;;;5026220;28;20437;-65
2022/01/11 06:18:50;;;;;;;14.02;3.05;;;25.10;99.90;;;;;;5020175;28;20513;-65
2022/01/11 06:21:18;;;;;;;17.50;3.10;;;25.20;99.90;;;;;;5027132;28;20097;-66
2022/01/11 06:23:49;;;;;;;15.57;3.90;;;25.20;99.90;;;;;;5030828;28;20041;-65
2022/01/11 06:26:17;;;;;;;16.33;3.45;;;25.20;99.90;;;;;;5024483;28;20034;-65
2022/01/11 06:28:45;;;;;;;12.00;2.78;;;25.20;99.90;;;;;;5020344;28;20061;-65
2022/01/11 06:31:12;;;;;;;12.45;2.75;;;25.20;99.90;;;;;;5029383;28;20037;-65
2022/01/11 06:33:40;;;;;;;18.83;3.63;;;25.20;99.90;;;;;;5024685;28;20129;-65
2022/01/11 06:36:10;;;;;;;9.60;2.38;;;25.20;99.90;;;;;;5032788;28;20390;-66
2022/01/11 06:38:39;;;;;;;16.95;2.60;;;25.20;99.90;;;;;;5027140;28;20493;-65
2022/01/11 06:41:07;;;;;;;16.73;2.75;;;25.10;99.90;;;;;;5023281;28;20029;-65
2022/01/11 06:43:35;;;;;;;16.88;3.03;;;25.00;99.90;;;;;;5015021;28;20072;-65
2022/01/11 06:46:04;;;;;;;17.25;3.97;;;25.10;99.90;;;;;;5018372;28;20061;-64
2022/01/11 06:48:32;;;;;;;18.27;3.33;;;25.00;99.90;;;;;;5032757;28;20053;-65
2022/01/11 06:50:59;;;;;;;13.30;2.80;;;24.90;99.90;;;;;;5033793;28;20108;-65
2022/01/11 06:53:28;;;;;;;16.55;2.95;;;24.90;99.90;;;;;;5017426;28;20072;-65
2022/01/11 06:55:55;;;;;;;16.98;3.25;;;24.90;99.90;;;;;;5015121;28;20068;-65
2022/01/11 06:58:23;;;;;;;15.57;2.60;;;24.90;99.90;;;;;;5019794;28;20029;-64
2022/01/11 07:00:51;;;;;;;17.25;2.85;;;24.90;99.90;;;;;;5019140;28;20120;-65
2022/01/11 07:03:18;;;;;;;20.63;2.78;;;24.90;99.90;;;;;;5024827;28;20047;-65
2022/01/11 07:05:46;;;;;;;21.48;4.28;;;24.90;99.90;;;;;;5025164;28;20021;-65
2022/01/11 07:08:13;;;;;;;16.73;3.33;;;24.90;99.90;;;;;;5020414;28;20054;-65
2022/01/11 07:10:41;;;;;;;13.32;2.90;;;24.80;99.90;;;;;;5020656;28;20501;-64
2022/01/11 07:13:08;;;;;;;16.77;3.33;;;24.80;99.90;;;;;;5019002;28;20022;-65
2022/01/11 07:15:36;;;;;;;14.90;2.95;;;24.80;99.90;;;;;;5020483;28;20080;-64
2022/01/11 07:18:08;;;;;;;21.35;3.75;;;24.80;99.90;;;;;;5024395;28;20384;-64
2022/01/11 07:20:37;;;;;;;19.60;3.83;;;24.80;99.90;;;;;;5024674;28;20018;-64
2022/01/11 07:23:05;;;;;;;18.92;3.67;;;24.70;99.90;;;;;;5022922;28;20424;-65
2022/01/11 07:25:33;;;;;;;15.50;3.28;;;24.70;99.90;;;;;;5018731;28;20026;-64
2022/01/11 07:28:01;;;;;;;17.20;3.75;;;24.70;99.90;;;;;;5017172;28;20038;-64
2022/01/11 07:30:28;;;;;;;19.75;3.30;;;24.70;99.90;;;;;;5017996;28;20021;-65
2022/01/11 07:32:56;;;;;;;12.60;2.70;;;24.70;99.90;;;;;;5023315;28;20164;-64
2022/01/11 07:35:24;;;;;;;15.43;3.55;;;24.70;99.90;;;;;;5027807;28;20018;-64
2022/01/11 07:37:52;;;;;;;22.20;3.22;;;24.70;99.90;;;;;;5032790;28;20032;-65
2022/01/11 07:40:21;;;;;;;13.70;2.75;;;24.70;99.90;;;;;;5022531;28;20475;-64
2022/01/11 07:42:51;;;;;;;19.95;3.08;;;24.70;99.90;;;;;;5016313;28;20025;-65
2022/01/11 07:45:18;;;;;;;19.13;3.72;;;24.60;99.90;;;;;;5021616;28;20030;-64
2022/01/11 07:47:46;;;;;;;18.67;3.35;;;24.60;99.90;;;;;;5014455;28;20042;-65
2022/01/11 07:50:15;;;;;;;24.65;4.47;;;24.50;99.90;;;;;;5015374;28;20034;-64
2022/01/11 07:52:42;;;;;;;24.23;4.07;;;24.50;99.90;;;;;;5021723;28;20080;-64
2022/01/11 07:55:10;;;;;;;18.45;3.40;;;24.40;99.90;;;;;;5023961;28;20029;-65
2022/01/11 07:57:37;;;;;;;29.02;5.18;;;24.50;99.90;;;;;;5025427;28;20471;-64
2022/01/11 08:00:07;;;;;;;21.42;3.38;;;24.50;99.90;;;;;;5027577;28;20544;-65
2022/01/11 08:02:34;;;;;;;21.17;2.78;;;24.40;99.90;;;;;;5027343;28;20041;-65
2022/01/11 08:05:02;;;;;;;17.42;2.85;;;24.40;99.90;;;;;;5021417;28;20034;-65
2022/01/11 08:07:29;;;;;;;18.55;3.88;;;24.40;99.90;;;;;;5018186;28;20494;-65
2022/01/11 08:09:58;;;;;;;27.40;3.53;;;24.40;99.90;;;;;;5022050;28;20030;-65
2022/01/11 08:12:25;;;;;;;16.13;4.28;;;24.40;99.90;;;;;;5016469;28;20017;-65
2022/01/11 08:14:52;;;;;;;22.15;3.90;;;24.40;99.90;;;;;;5023055;28;20084;-65
2022/01/11 08:17:20;;;;;;;17.80;3.03;;;24.40;99.90;;;;;;5024492;28;20018;-65
2022/01/11 08:19:47;;;;;;;14.45;3.55;;;24.40;99.90;;;;;;5008437;28;20057;-65
2022/01/11 08:22:15;;;;;;;18.85;3.15;;;24.40;99.90;;;;;;5021970;28;20485;-65
2022/01/11 08:24:44;;;;;;;16.88;3.20;;;24.40;99.90;;;;;;5020586;28;20045;-64
2022/01/11 08:27:13;;;;;;;21.30;4.40;;;24.30;99.90;;;;;;5025658;28;20080;-65
2022/01/11 08:29:42;;;;;;;24.30;4.88;;;24.30;99.90;;;;;;5017633;28;20029;-64
2022/01/11 08:32:09;;;;;;;15.63;3.10;;;24.30;99.90;;;;;;5031679;28;20498;-64
2022/01/11 08:34:36;;;;;;;16.48;3.40;;;24.30;99.90;;;;;;5020817;28;20021;-65
2022/01/11 08:37:04;;;;;;;20.08;3.20;;;24.30;99.90;;;;;;5018899;28;20536;-64
2022/01/11 08:39:32;;;;;;;17.15;3.45;;;24.30;99.90;;;;;;5013663;28;20025;-64
2022/01/11 08:41:59;;;;;;;17.48;3.15;;;24.30;99.90;;;;;;5025953;28;20065;-65
2022/01/11 08:44:27;;;;;;;23.45;3.42;;;24.20;99.90;;;;;;5017275;28;20060;-64
2022/01/11 08:46:55;;;;;;;18.77;3.28;;;24.30;99.90;;;;;;5013814;28;20111;-65
2022/01/11 08:49:22;;;;;;;22.42;4.15;;;24.20;99.90;;;;;;5013043;28;20045;-64
2022/01/11 08:51:50;;;;;;;17.80;2.88;;;24.10;99.90;;;;;;5015384;28;20128;-64
2022/01/11 08:54:20;;;;;;;19.40;3.65;;;24.10;99.90;;;;;;5031358;28;20034;-64
2022/01/11 08:56:48;;;;;;;23.58;17.15;;;24.00;99.90;;;;;;5015361;28;20030;-64
2022/01/11 08:59:15;;;;;;;20.83;4.25;;;24.00;99.90;;;;;;5016165;28;20030;-64
2022/01/11 09:01:42;;;;;;;16.00;2.55;;;24.10;99.90;;;;;;5024673;28;20112;-64
2022/01/11 09:04:10;;;;;;;24.88;4.07;;;24.00;99.90;;;;;;5025236;28;20118;-65
2022/01/11 09:06:37;;;;;;;21.52;3.63;;;24.00;99.90;;;;;;5018231;28;20497;-65
2022/01/11 09:09:05;;;;;;;20.55;3.33;;;23.90;99.90;;;;;;5020711;28;20505;-64
2022/01/11 09:11:34;;;;;;;24.77;3.35;;;23.90;99.90;;;;;;5014652;28;20030;-64
2022/01/11 09:14:01;;;;;;;21.88;4.18;;;23.90;99.90;;;;;;5014718;28;20522;-64
2022/01/11 09:16:28;;;;;;;25.75;4.40;;;23.80;99.90;;;;;;5014697;28;20124;-64
2022/01/11 09:18:55;;;;;;;21.45;4.10;;;23.80;99.90;;;;;;5020013;28;20108;-64
2022/01/11 09:21:23;;;;;;;19.40;3.55;;;23.80;99.90;;;;;;5014261;28;20029;-64
2022/01/11 09:23:52;;;;;;;20.52;3.70;;;23.80;99.90;;;;;;5018606;28;20022;-64
2022/01/11 09:26:19;;;;;;;18.70;3.50;;;23.70;99.90;;;;;;5022845;28;20097;-64
2022/01/11 09:28:47;;;;;;;21.05;3.42;;;23.80;99.90;;;;;;5019269;28;20028;-64
2022/01/11 09:31:17;;;;;;;21.25;3.55;;;23.70;99.90;;;;;;5029396;28;20029;-64
2022/01/11 09:33:44;;;;;;;22.25;3.17;;;23.60;99.90;;;;;;5015296;28;20029;-64
2022/01/11 09:36:11;;;;;;;19.92;3.95;;;23.70;99.90;;;;;;5012601;28;20128;-65
2022/01/11 09:38:39;;;;;;;30.15;4.55;;;23.60;99.90;;;;;;5024167;28;20025;-64
2022/01/11 09:41:06;;;;;;;22.38;3.72;;;23.60;99.90;;;;;;5013442;28;20026;-65
2022/01/11 09:43:34;;;;;;;25.58;3.88;;;23.50;99.90;;;;;;5014247;28;20028;-64
2022/01/11 09:46:02;;;;;;;23.55;3.75;;;23.50;99.90;;;;;;5013928;28;20061;-65
2022/01/11 09:48:34;;;;;;;30.77;5.28;;;23.50;99.90;;;;;;5014366;28;20049;-64
2022/01/11 09:51:02;;;;;;;25.50;4.55;;;23.50;99.90;;;;;;5012892;28;20030;-64
2022/01/11 09:53:30;;;;;;;18.52;4.15;;;23.40;99.90;;;;;;5021056;28;20490;-65
2022/01/11 09:55:57;;;;;;;25.83;4.28;;;23.50;99.90;;;;;;5016887;28;20478;-64
2022/01/11 09:58:24;;;;;;;18.63;3.35;;;23.50;99.90;;;;;;5016294;28;20046;-65
2022/01/11 10:00:54;;;;;;;22.58;3.72;;;23.50;99.90;;;;;;5024129;28;20053;-65
2022/01/11 10:03:21;;;;;;;27.38;4.47;;;23.50;99.90;;;;;;5026106;28;20033;-65
2022/01/11 10:05:48;;;;;;;19.23;3.92;;;23.50;99.90;;;;;;5021687;28;20028;-65
2022/01/11 10:08:34;;;;;;;20.10;3.47;;;23.50;99.90;;;;;;5024359;28;20068;-65
2022/01/11 10:11:01;;;;;;;27.83;4.20;;;23.60;99.90;;;;;;5023453;28;20021;-64
2022/01/11 10:13:37;;;;;;;18.23;3.92;;;23.50;99.90;;;;;;5018490;28;20030;-64
2022/01/11 10:16:28;;;;;;;28.98;3.80;;;23.60;99.90;;;;;;5024250;28;20028;-64
2022/01/11 10:18:57;;;;;;;25.52;4.30;;;23.60;99.90;;;;;;5020638;28;20025;-64
2022/01/11 10:21:45;;;;;;;19.40;4.13;;;23.60;99.90;;;;;;5030542;28;20555;-64
2022/01/11 10:24:32;;;;;;;22.25;4.25;;;23.60;99.90;;;;;;5016344;28;20130;-64
2022/01/11 10:27:06;;;;;;;16.63;3.08;;;23.60;99.90;;;;;;5019717;28;20025;-64
2022/01/11 10:29:43;;;;;;;19.83;3.08;;;23.60;99.90;;;;;;5016337;28;20103;-64
2022/01/11 10:32:21;;;;;;;21.35;2.97;;;23.60;99.90;;;;;;5028266;28;20037;-64
2022/01/11 10:34:51;;;;;;;15.23;3.05;;;23.60;99.90;;;;;;5032136;28;20047;-65
2022/01/11 10:37:31;;;;;;;20.02;3.22;;;23.60;99.90;;;;;;5019959;28;20028;-65
2022/01/11 10:40:05;;;;;;;20.70;3.28;;;23.60;99.90;;;;;;5027015;28;20028;-65
2022/01/11 10:42:34;;;;;;;23.90;4.18;;;23.60;99.90;;;;;;5020285;28;20026;-63
2022/01/11 10:45:30;;;;;;;17.90;3.58;;;23.50;99.90;;;;;;5019433;28;20436;-65
2022/01/11 10:47:59;;;;;;;12.20;3.03;;;23.50;99.90;;;;;;5021177;28;20088;-65
2022/01/11 10:50:47;;;;;;;20.30;4.28;;;23.50;99.90;;;;;;5026282;28;20024;-65
2022/01/11 10:53:24;;;;;;;27.48;4.47;;;23.60;99.90;;;;;;5027164;28;20060;-65
2022/01/11 10:55:56;;;;;;;18.63;2.90;;;23.50;99.90;;;;;;5023803;28;20037;-65
2022/01/11 10:58:28;;;;;;;20.20;3.88;;;23.60;99.90;;;;;;5031162;28;20540;-64
2022/01/11 11:00:56;;;;;;;19.45;3.00;;;23.60;99.90;;;;;;5022971;28;20033;-66
2022/01/11 11:03:27;;;;;;;18.58;3.38;;;23.50;99.90;;;;;;5030783;28;20092;-65
2022/01/11 11:05:59;;;;;;;21.38;3.33;;;23.50;99.90;;;;;;5031606;28;20024;-65
2022/01/11 11:08:35;;;;;;;19.00;4.10;;;23.50;99.90;;;;;;5020054;28;20113;-65
2022/01/11 11:11:04;;;;;;;15.63;3.47;;;23.50;99.90;;;;;;5030311;28;20022;-64
2022/01/11 11:13:34;;;;;;;20.38;4.00;;;23.50;99.90;;;;;;5015204;28;20037;-64
2022/01/11 11:16:15;;;;;;;15.68;3.15;;;23.50;99.90;;;;;;5014939;28;20101;-65
2022/01/11 11:18:48;;;;;;;23.33;5.10;;;23.50;99.90;;;;;;5015011;28;20546;-65
2022/01/11 11:21:25;;;;;;;18.83;3.15;;;23.40;99.90;;;;;;5014562;28;20037;-65
2022/01/11 11:23:56;;;;;;;21.85;3.88;;;23.40;99.90;;;;;;5015275;28;20036;-64
2022/01/11 11:26:26;;;;;;;22.65;3.42;;;23.40;99.90;;;;;;5014724;28;20084;-65
2022/01/11 11:28:54;;;;;;;32.45;3.75;;;23.40;99.90;;;;;;5024630;28;20120;-65
2022/01/11 11:31:24;;;;;;;20.50;3.10;;;23.40;99.90;;;;;;5034655;28;20520;-65
2022/01/11 11:33:52;;;;;;;18.30;2.65;;;23.30;99.90;;;;;;5031795;28;20072;-64
2022/01/11 11:36:20;;;;;;;22.15;3.22;;;23.40;99.90;;;;;;5032192;28;20060;-65
2022/01/11 11:39:06;;;;;;;16.42;3.13;;;23.30;99.90;;;;;;5034685;28;20025;-65
2022/01/11 11:41:37;;;;;;;22.92;3.45;;;23.30;99.90;;;;;;5024906;28;20018;-66
2022/01/11 11:44:15;;;;;;;28.13;4.43;;;23.40;99.90;;;;;;5014627;28;20075;-66
2022/01/11 11:47:03;;;;;;;15.80;2.50;;;23.30;99.90;;;;;;5014021;28;20068;-65
2022/01/11 11:49:58;;;;;;;24.45;4.18;;;23.30;99.90;;;;;;5025774;28;20442;-65
2022/01/11 11:52:53;;;;;;;20.80;4.05;;;23.30;99.90;;;;;;5021011;28;20050;-64
2022/01/11 11:55:33;;;;;;;15.48;2.97;;;23.30;99.90;;;;;;5015020;28;20026;-65
2022/01/11 11:58:06;;;;;;;22.00;3.38;;;23.30;99.90;;;;;;5015570;28;20037;-65
2022/01/11 12:00:43;;;;;;;14.98;2.97;;;23.30;99.90;;;;;;5014681;28;20033;-65
2022/01/11 12:03:25;;;;;;;15.70;2.92;;;23.20;99.90;;;;;;5014473;28;20022;-65
2022/01/11 12:05:54;;;;;;;16.83;3.17;;;23.20;99.90;;;;;;5014249;28;20052;-65
2022/01/11 12:08:42;;;;;;;25.27;4.30;;;23.20;99.90;;;;;;5014402;28;20062;-65
2022/01/11 12:11:17;;;;;;;18.17;3.47;;;23.20;99.90;;;;;;5013838;28;20033;-65
2022/01/11 12:13:54;;;;;;;20.63;2.97;;;23.10;99.90;;;;;;5014096;28;20542;-66
2022/01/11 12:16:29;;;;;;;13.55;2.90;;;23.20;99.90;;;;;;5014562;28;20033;-65
2022/01/11 12:19:08;;;;;;;23.30;3.72;;;23.10;99.90;;;;;;5017813;28;20026;-65
2022/01/11 12:22:06;;;;;;;19.67;3.13;;;23.10;99.90;;;;;;5015781;28;20025;-65
2022/01/11 12:24:44;;;;;;;16.52;2.88;;;23.10;99.90;;;;;;5032129;28;20033;-65
2022/01/11 12:27:14;;;;;;;20.05;3.97;;;23.10;99.90;;;;;;5017747;28;20022;-65
2022/01/11 12:30:04;;;;;;;12.57;2.40;;;23.10;99.90;;;;;;5016655;28;22795;-65
2022/01/11 12:32:56;;;;;;;23.77;3.88;;;23.00;99.90;;;;;;5024940;28;20022;-65
2022/01/11 12:35:24;;;;;;;18.55;3.67;;;23.10;99.90;;;;;;5013695;28;20025;-65
2022/01/11 12:38:09;;;;;;;15.73;3.30;;;23.00;99.90;;;;;;5013562;28;20052;-65
2022/01/11 12:40:40;;;;;;;18.45;3.90;;;23.00;99.90;;;;;;5013636;28;20057;-65
2022/01/11 12:43:20;;;;;;;18.90;3.05;;;23.00;99.90;;;;;;5013060;28;20022;-65
2022/01/11 12:46:10;;;;;;;22.38;2.97;;;23.00;99.90;;;;;;5025401;28;20033;-65
2022/01/11 12:48:54;;;;;;;19.48;2.30;;;22.90;99.90;;;;;;5019194;28;20038;-65
2022/01/11 12:51:30;;;;;;;21.57;3.53;;;22.90;99.90;;;;;;5016728;28;20025;-65
2022/01/11 12:54:17;;;;;;;16.05;3.05;;;22.90;99.90;;;;;;5019443;28;20667;-65
2022/01/11 12:56:46;;;;;;;22.13;3.55;;;23.00;99.90;;;;;;5032709;28;20139;-65